KPDT/PDT METAR and TAF weather

Enter ICAO airport designator
Station Type Date Time Source
KPDT METAR 2020/10/20 16:53 UTC NOAA

KPDT 201653Z 10SM FEW030 FEW050 11/04 A3015 RMK AO2 SLP205 T01110044


Station Type Date Time Source
KPDT Decoded METAR 2020/10/20 16:53 UTC NOAA

PENDLETON MUNICIPAL AIRPORT, OR, United States (KPDT) 45-70N 118-83W 458M
Oct 20, 2020 - 12:53 PM EDT / 2020.10.20 1653 UTC
Visibility: 10 mile(s):0
Sky conditions: mostly clear
Temperature: 52.0 F (11.1 C)
Dew Point: 39.9 F (4.4 C)
Relative Humidity: 63%
Pressure (altimeter): 30.15 in. Hg (1020 hPa)
ob: KPDT 201653Z 10SM FEW030 FEW050 11/04 A3015 RMK AO2 SLP205 T01110044
cycle: 17

Station Type Date Time Source
KPDT TAF 2020/10/20 12:36 UTC NOAA

TAF KPDT 201134Z 2012/2112 29009KT P6SM BKN040
FM202100 28012KT P6SM FEW050 SCT120
FM210300 26009KT P6SM FEW050 OVC100
FM210600 25014G20KT P6SM BKN100

Example: see airport list